sensor_id;sensor_type;location;lat;lon;timestamp;P1;durP1;ratioP1;P2;durP2;ratioP2
12232;SDS011;6179;51.748;8.728;2023-02-13T00:01:06;19.53;;;4.53;;
12232;SDS011;6179;51.748;8.728;2023-02-13T00:07:07;9.43;;;3.40;;
12232;SDS011;6179;51.748;8.728;2023-02-13T00:13:10;9.03;;;3.70;;
12232;SDS011;6179;51.748;8.728;2023-02-13T00:19:11;8.90;;;4.03;;
12232;SDS011;6179;51.748;8.728;2023-02-13T00:25:12;7.73;;;3.40;;
12232;SDS011;6179;51.748;8.728;2023-02-13T00:31:14;11.73;;;4.70;;
12232;SDS011;6179;51.748;8.728;2023-02-13T00:37:17;6.77;;;3.83;;
12232;SDS011;6179;51.748;8.728;2023-02-13T00:43:18;12.87;;;4.10;;
12232;SDS011;6179;51.748;8.728;2023-02-13T00:49:19;12.23;;;4.67;;
12232;SDS011;6179;51.748;8.728;2023-02-13T00:55:20;7.50;;;4.17;;
12232;SDS011;6179;51.748;8.728;2023-02-13T01:01:20;7.80;;;4.80;;
12232;SDS011;6179;51.748;8.728;2023-02-13T01:07:21;14.10;;;5.70;;
12232;SDS011;6179;51.748;8.728;2023-02-13T01:13:22;13.73;;;6.07;;
12232;SDS011;6179;51.748;8.728;2023-02-13T01:19:23;22.33;;;9.30;;
12232;SDS011;6179;51.748;8.728;2023-02-13T01:25:24;16.83;;;7.27;;
12232;SDS011;6179;51.748;8.728;2023-02-13T01:31:26;14.97;;;7.23;;
12232;SDS011;6179;51.748;8.728;2023-02-13T01:37:27;13.57;;;7.13;;
12232;SDS011;6179;51.748;8.728;2023-02-13T01:43:49;23.30;;;8.93;;
12232;SDS011;6179;51.748;8.728;2023-02-13T01:50:04;18.93;;;7.30;;
12232;SDS011;6179;51.748;8.728;2023-02-13T01:56:33;23.57;;;9.00;;
12232;SDS011;6179;51.748;8.728;2023-02-13T02:02:43;14.70;;;6.60;;
12232;SDS011;6179;51.748;8.728;2023-02-13T02:08:56;10.13;;;6.43;;
12232;SDS011;6179;51.748;8.728;2023-02-13T02:15:05;22.33;;;6.33;;
12232;SDS011;6179;51.748;8.728;2023-02-13T02:54:03;10.43;;;3.30;;
12232;SDS011;6179;51.748;8.728;2023-02-13T03:00:32;14.83;;;5.13;;
12232;SDS011;6179;51.748;8.728;2023-02-13T03:07:01;10.40;;;4.90;;
12232;SDS011;6179;51.748;8.728;2023-02-13T03:13:12;9.13;;;5.40;;
12232;SDS011;6179;51.748;8.728;2023-02-13T03:45:12;12.50;;;3.27;;
12232;SDS011;6179;51.748;8.728;2023-02-13T03:51:47;13.70;;;3.97;;
12232;SDS011;6179;51.748;8.728;2023-02-13T03:58:05;4.30;;;2.10;;
12232;SDS011;6179;51.748;8.728;2023-02-13T04:05:03;9.70;;;3.90;;
12232;SDS011;6179;51.748;8.728;2023-02-13T04:11:29;7.37;;;3.50;;
12232;SDS011;6179;51.748;8.728;2023-02-13T04:17:45;11.97;;;4.10;;
12232;SDS011;6179;51.748;8.728;2023-02-13T04:23:54;12.17;;;4.13;;
12232;SDS011;6179;51.748;8.728;2023-02-13T04:29:55;5.87;;;2.77;;
12232;SDS011;6179;51.748;8.728;2023-02-13T04:35:55;3.70;;;1.80;;
12232;SDS011;6179;51.748;8.728;2023-02-13T04:41:56;5.70;;;1.83;;
12232;SDS011;6179;51.748;8.728;2023-02-13T04:47:57;4.27;;;1.37;;
12232;SDS011;6179;51.748;8.728;2023-02-13T04:53:58;3.07;;;1.67;;
12232;SDS011;6179;51.748;8.728;2023-02-13T04:59:59;1.50;;;1.00;;
12232;SDS011;6179;51.748;8.728;2023-02-13T05:06:00;2.30;;;0.97;;
12232;SDS011;6179;51.748;8.728;2023-02-13T05:12:00;3.23;;;1.30;;
12232;SDS011;6179;51.748;8.728;2023-02-13T05:18:01;5.27;;;2.17;;
12232;SDS011;6179;51.748;8.728;2023-02-13T05:24:02;4.00;;;3.20;;
12232;SDS011;6179;51.748;8.728;2023-02-13T05:30:03;9.70;;;1.87;;
12232;SDS011;6179;51.748;8.728;2023-02-13T05:36:05;3.40;;;1.27;;
12232;SDS011;6179;51.748;8.728;2023-02-13T05:42:07;2.93;;;1.93;;
12232;SDS011;6179;51.748;8.728;2023-02-13T05:48:08;7.60;;;1.17;;
12232;SDS011;6179;51.748;8.728;2023-02-13T05:54:09;2.77;;;0.90;;
12232;SDS011;6179;51.748;8.728;2023-02-13T06:00:09;5.33;;;1.80;;
12232;SDS011;6179;51.748;8.728;2023-02-13T06:06:11;5.93;;;3.33;;
12232;SDS011;6179;51.748;8.728;2023-02-13T06:12:12;4.10;;;2.30;;
12232;SDS011;6179;51.748;8.728;2023-02-13T06:18:13;2.70;;;1.83;;
12232;SDS011;6179;51.748;8.728;2023-02-13T06:24:13;2.27;;;1.50;;
12232;SDS011;6179;51.748;8.728;2023-02-13T06:30:15;1.93;;;1.10;;
12232;SDS011;6179;51.748;8.728;2023-02-13T06:36:17;2.43;;;1.00;;
12232;SDS011;6179;51.748;8.728;2023-02-13T06:42:17;1.33;;;1.23;;
12232;SDS011;6179;51.748;8.728;2023-02-13T06:48:18;2.00;;;1.23;;
12232;SDS011;6179;51.748;8.728;2023-02-13T06:54:19;2.73;;;1.10;;
12232;SDS011;6179;51.748;8.728;2023-02-13T07:00:20;2.80;;;1.33;;
12232;SDS011;6179;51.748;8.728;2023-02-13T07:06:21;2.63;;;1.13;;
12232;SDS011;6179;51.748;8.728;2023-02-13T07:12:22;1.00;;;0.77;;
12232;SDS011;6179;51.748;8.728;2023-02-13T07:18:23;4.53;;;1.43;;
12232;SDS011;6179;51.748;8.728;2023-02-13T07:24:23;2.70;;;1.60;;
12232;SDS011;6179;51.748;8.728;2023-02-13T07:30:24;3.37;;;1.57;;
12232;SDS011;6179;51.748;8.728;2023-02-13T07:36:26;4.30;;;1.10;;
12232;SDS011;6179;51.748;8.728;2023-02-13T07:42:27;1.33;;;0.90;;
12232;SDS011;6179;51.748;8.728;2023-02-13T07:48:32;3.37;;;1.50;;
12232;SDS011;6179;51.748;8.728;2023-02-13T07:54:33;5.27;;;0.90;;
12232;SDS011;6179;51.748;8.728;2023-02-13T08:00:36;1.80;;;1.20;;
12232;SDS011;6179;51.748;8.728;2023-02-13T08:06:40;3.67;;;1.50;;
12232;SDS011;6179;51.748;8.728;2023-02-13T08:12:41;6.13;;;1.67;;
12232;SDS011;6179;51.748;8.728;2023-02-13T08:18:42;2.50;;;1.93;;
12232;SDS011;6179;51.748;8.728;2023-02-13T08:24:43;2.70;;;1.57;;
12232;SDS011;6179;51.748;8.728;2023-02-13T08:30:44;1.60;;;0.90;;
12232;SDS011;6179;51.748;8.728;2023-02-13T08:36:44;4.57;;;1.60;;
12232;SDS011;6179;51.748;8.728;2023-02-13T08:42:45;4.50;;;1.70;;
12232;SDS011;6179;51.748;8.728;2023-02-13T08:48:46;3.13;;;1.47;;
12232;SDS011;6179;51.748;8.728;2023-02-13T08:54:47;2.97;;;1.53;;
12232;SDS011;6179;51.748;8.728;2023-02-13T09:00:48;2.70;;;1.37;;
12232;SDS011;6179;51.748;8.728;2023-02-13T09:06:49;6.77;;;1.40;;
12232;SDS011;6179;51.748;8.728;2023-02-13T09:12:53;2.17;;;1.20;;
12232;SDS011;6179;51.748;8.728;2023-02-13T09:18:54;3.30;;;2.00;;
12232;SDS011;6179;51.748;8.728;2023-02-13T09:24:54;3.90;;;2.20;;
12232;SDS011;6179;51.748;8.728;2023-02-13T09:30:57;5.60;;;1.90;;
12232;SDS011;6179;51.748;8.728;2023-02-13T09:36:58;2.83;;;1.50;;
12232;SDS011;6179;51.748;8.728;2023-02-13T09:43:03;3.40;;;1.73;;
12232;SDS011;6179;51.748;8.728;2023-02-13T09:49:30;2.00;;;1.00;;
12232;SDS011;6179;51.748;8.728;2023-02-13T10:01:53;5.50;;;1.53;;
12232;SDS011;6179;51.748;8.728;2023-02-13T10:21:38;1.90;;;1.00;;
12232;SDS011;6179;51.748;8.728;2023-02-13T10:28:06;3.23;;;2.10;;
12232;SDS011;6179;51.748;8.728;2023-02-13T10:34:15;3.50;;;1.30;;
12232;SDS011;6179;51.748;8.728;2023-02-13T10:40:17;2.50;;;1.20;;
12232;SDS011;6179;51.748;8.728;2023-02-13T10:46:24;4.57;;;2.27;;
12232;SDS011;6179;51.748;8.728;2023-02-13T10:59:20;2.93;;;1.37;;
12232;SDS011;6179;51.748;8.728;2023-02-13T11:05:55;4.47;;;1.83;;
12232;SDS011;6179;51.748;8.728;2023-02-13T11:11:58;3.30;;;2.20;;
12232;SDS011;6179;51.748;8.728;2023-02-13T11:18:28;3.10;;;1.20;;
12232;SDS011;6179;51.748;8.728;2023-02-13T11:24:33;5.10;;;1.30;;
12232;SDS011;6179;51.748;8.728;2023-02-13T11:30:36;2.40;;;1.20;;
12232;SDS011;6179;51.748;8.728;2023-02-13T11:36:37;3.10;;;1.40;;
12232;SDS011;6179;51.748;8.728;2023-02-13T11:42:40;2.87;;;0.93;;
12232;SDS011;6179;51.748;8.728;2023-02-13T11:48:49;4.53;;;1.60;;
12232;SDS011;6179;51.748;8.728;2023-02-13T11:55:23;2.30;;;1.17;;
12232;SDS011;6179;51.748;8.728;2023-02-13T12:01:25;4.70;;;1.53;;
12232;SDS011;6179;51.748;8.728;2023-02-13T12:07:28;3.70;;;1.37;;
12232;SDS011;6179;51.748;8.728;2023-02-13T12:13:37;2.30;;;1.50;;
12232;SDS011;6179;51.748;8.728;2023-02-13T12:19:42;2.60;;;1.20;;
12232;SDS011;6179;51.748;8.728;2023-02-13T12:58:39;2.40;;;1.10;;
12232;SDS011;6179;51.748;8.728;2023-02-13T13:12:11;8.07;;;0.90;;
12232;SDS011;6179;51.748;8.728;2023-02-13T13:25:35;2.70;;;1.73;;
12232;SDS011;6179;51.748;8.728;2023-02-13T13:31:55;2.47;;;1.17;;
12232;SDS011;6179;51.748;8.728;2023-02-13T13:51:15;1.80;;;1.30;;
12232;SDS011;6179;51.748;8.728;2023-02-13T13:57:21;3.00;;;1.60;;
12232;SDS011;6179;51.748;8.728;2023-02-13T14:03:47;3.43;;;1.60;;
12232;SDS011;6179;51.748;8.728;2023-02-13T14:09:48;2.03;;;1.83;;
12232;SDS011;6179;51.748;8.728;2023-02-13T14:15:49;4.10;;;1.73;;
12232;SDS011;6179;51.748;8.728;2023-02-13T14:21:52;3.40;;;1.63;;
12232;SDS011;6179;51.748;8.728;2023-02-13T14:28:24;5.30;;;2.30;;
12232;SDS011;6179;51.748;8.728;2023-02-13T14:34:34;6.90;;;1.80;;
12232;SDS011;6179;51.748;8.728;2023-02-13T14:46:42;3.23;;;1.60;;
12232;SDS011;6179;51.748;8.728;2023-02-13T14:52:45;5.43;;;2.87;;
12232;SDS011;6179;51.748;8.728;2023-02-13T14:58:52;3.57;;;2.20;;
12232;SDS011;6179;51.748;8.728;2023-02-13T15:05:17;10.10;;;2.67;;
12232;SDS011;6179;51.748;8.728;2023-02-13T15:17:38;8.27;;;3.20;;
12232;SDS011;6179;51.748;8.728;2023-02-13T15:23:40;8.77;;;3.27;;
12232;SDS011;6179;51.748;8.728;2023-02-13T15:29:52;6.73;;;2.50;;
12232;SDS011;6179;51.748;8.728;2023-02-13T15:36:21;6.93;;;1.90;;
12232;SDS011;6179;51.748;8.728;2023-02-13T15:42:25;6.80;;;2.43;;
12232;SDS011;6179;51.748;8.728;2023-02-13T15:48:26;7.27;;;2.50;;
12232;SDS011;6179;51.748;8.728;2023-02-13T15:54:31;6.10;;;2.77;;
12232;SDS011;6179;51.748;8.728;2023-02-13T16:00:35;5.30;;;2.27;;
12232;SDS011;6179;51.748;8.728;2023-02-13T16:06:40;7.83;;;2.70;;
12232;SDS011;6179;51.748;8.728;2023-02-13T16:12:46;3.70;;;2.37;;
12232;SDS011;6179;51.748;8.728;2023-02-13T16:18:48;5.40;;;3.10;;
12232;SDS011;6179;51.748;8.728;2023-02-13T16:24:51;7.93;;;3.70;;
12232;SDS011;6179;51.748;8.728;2023-02-13T16:30:57;5.53;;;1.83;;
12232;SDS011;6179;51.748;8.728;2023-02-13T16:37:01;5.87;;;3.10;;
12232;SDS011;6179;51.748;8.728;2023-02-13T16:49:44;6.70;;;2.80;;
12232;SDS011;6179;51.748;8.728;2023-02-13T16:55:57;6.93;;;3.17;;
12232;SDS011;6179;51.748;8.728;2023-02-13T17:02:22;6.57;;;2.43;;
12232;SDS011;6179;51.748;8.728;2023-02-13T17:08:23;14.93;;;4.90;;
12232;SDS011;6179;51.748;8.728;2023-02-13T17:14:23;10.33;;;4.37;;
12232;SDS011;6179;51.748;8.728;2023-02-13T17:20:25;11.30;;;4.90;;
12232;SDS011;6179;51.748;8.728;2023-02-13T17:26:30;8.17;;;5.07;;
12232;SDS011;6179;51.748;8.728;2023-02-13T17:32:31;12.37;;;6.17;;
12232;SDS011;6179;51.748;8.728;2023-02-13T17:38:31;12.03;;;4.47;;
12232;SDS011;6179;51.748;8.728;2023-02-13T17:44:32;11.13;;;7.57;;
12232;SDS011;6179;51.748;8.728;2023-02-13T17:50:33;9.10;;;4.33;;
12232;SDS011;6179;51.748;8.728;2023-02-13T17:56:35;18.43;;;5.77;;
12232;SDS011;6179;51.748;8.728;2023-02-13T18:02:36;27.60;;;6.67;;
12232;SDS011;6179;51.748;8.728;2023-02-13T18:08:36;10.67;;;5.03;;
12232;SDS011;6179;51.748;8.728;2023-02-13T18:14:37;16.10;;;5.47;;
12232;SDS011;6179;51.748;8.728;2023-02-13T18:20:38;9.97;;;6.00;;
12232;SDS011;6179;51.748;8.728;2023-02-13T18:26:39;12.93;;;4.77;;
12232;SDS011;6179;51.748;8.728;2023-02-13T18:32:40;11.10;;;5.70;;
12232;SDS011;6179;51.748;8.728;2023-02-13T18:38:41;11.27;;;4.63;;
12232;SDS011;6179;51.748;8.728;2023-02-13T18:44:41;13.20;;;6.40;;
12232;SDS011;6179;51.748;8.728;2023-02-13T18:50:42;13.67;;;4.50;;
12232;SDS011;6179;51.748;8.728;2023-02-13T18:56:43;12.37;;;4.80;;
12232;SDS011;6179;51.748;8.728;2023-02-13T19:02:44;17.40;;;8.20;;
12232;SDS011;6179;51.748;8.728;2023-02-13T19:08:45;14.50;;;6.37;;
12232;SDS011;6179;51.748;8.728;2023-02-13T19:14:46;11.03;;;6.33;;
12232;SDS011;6179;51.748;8.728;2023-02-13T19:20:47;16.90;;;6.83;;
12232;SDS011;6179;51.748;8.728;2023-02-13T19:26:48;21.87;;;6.00;;
12232;SDS011;6179;51.748;8.728;2023-02-13T19:32:49;23.83;;;8.93;;
12232;SDS011;6179;51.748;8.728;2023-02-13T19:38:59;18.57;;;7.73;;
12232;SDS011;6179;51.748;8.728;2023-02-13T19:45:04;14.97;;;7.30;;
12232;SDS011;6179;51.748;8.728;2023-02-13T19:51:05;19.23;;;7.83;;
12232;SDS011;6179;51.748;8.728;2023-02-13T19:57:07;14.23;;;8.10;;
12232;SDS011;6179;51.748;8.728;2023-02-13T20:03:08;18.37;;;10.07;;
12232;SDS011;6179;51.748;8.728;2023-02-13T20:09:10;25.93;;;8.80;;
12232;SDS011;6179;51.748;8.728;2023-02-13T20:15:12;22.77;;;8.80;;
12232;SDS011;6179;51.748;8.728;2023-02-13T20:21:14;17.97;;;6.77;;
12232;SDS011;6179;51.748;8.728;2023-02-13T20:27:16;11.70;;;5.57;;
12232;SDS011;6179;51.748;8.728;2023-02-13T20:33:17;14.10;;;6.17;;
12232;SDS011;6179;51.748;8.728;2023-02-13T20:39:18;13.50;;;6.50;;
12232;SDS011;6179;51.748;8.728;2023-02-13T20:45:18;10.17;;;5.07;;
12232;SDS011;6179;51.748;8.728;2023-02-13T20:51:19;13.77;;;6.97;;
12232;SDS011;6179;51.748;8.728;2023-02-13T20:57:20;17.80;;;9.00;;
12232;SDS011;6179;51.748;8.728;2023-02-13T21:03:21;21.67;;;7.27;;
12232;SDS011;6179;51.748;8.728;2023-02-13T21:09:22;13.20;;;6.63;;
12232;SDS011;6179;51.748;8.728;2023-02-13T21:15:22;14.20;;;8.27;;
12232;SDS011;6179;51.748;8.728;2023-02-13T21:21:25;18.03;;;5.30;;
12232;SDS011;6179;51.748;8.728;2023-02-13T21:27:28;15.27;;;5.03;;
12232;SDS011;6179;51.748;8.728;2023-02-13T21:33:29;11.97;;;5.30;;
12232;SDS011;6179;51.748;8.728;2023-02-13T21:39:30;12.00;;;5.70;;
12232;SDS011;6179;51.748;8.728;2023-02-13T21:45:31;14.80;;;5.83;;
12232;SDS011;6179;51.748;8.728;2023-02-13T21:51:33;8.97;;;5.27;;
12232;SDS011;6179;51.748;8.728;2023-02-13T21:57:35;5.10;;;3.63;;
12232;SDS011;6179;51.748;8.728;2023-02-13T22:03:36;8.07;;;3.80;;
12232;SDS011;6179;51.748;8.728;2023-02-13T22:09:36;11.07;;;5.33;;
12232;SDS011;6179;51.748;8.728;2023-02-13T22:15:37;7.90;;;3.90;;
12232;SDS011;6179;51.748;8.728;2023-02-13T22:21:38;15.73;;;6.23;;
12232;SDS011;6179;51.748;8.728;2023-02-13T22:27:39;9.50;;;4.60;;
12232;SDS011;6179;51.748;8.728;2023-02-13T22:33:47;2.90;;;2.20;;
12232;SDS011;6179;51.748;8.728;2023-02-13T22:39:48;10.13;;;4.87;;
12232;SDS011;6179;51.748;8.728;2023-02-13T22:45:49;19.60;;;7.60;;
12232;SDS011;6179;51.748;8.728;2023-02-13T22:51:50;9.40;;;4.97;;
12232;SDS011;6179;51.748;8.728;2023-02-13T22:57:50;16.03;;;5.67;;
12232;SDS011;6179;51.748;8.728;2023-02-13T23:03:54;22.23;;;7.73;;
12232;SDS011;6179;51.748;8.728;2023-02-13T23:09:56;8.50;;;4.40;;
12232;SDS011;6179;51.748;8.728;2023-02-13T23:15:57;11.20;;;5.57;;
12232;SDS011;6179;51.748;8.728;2023-02-13T23:21:58;7.27;;;5.13;;
12232;SDS011;6179;51.748;8.728;2023-02-13T23:27:59;4.43;;;3.97;;
12232;SDS011;6179;51.748;8.728;2023-02-13T23:34:00;15.67;;;6.07;;
12232;SDS011;6179;51.748;8.728;2023-02-13T23:40:02;10.73;;;4.40;;
12232;SDS011;6179;51.748;8.728;2023-02-13T23:46:05;7.90;;;3.67;;
12232;SDS011;6179;51.748;8.728;2023-02-13T23:52:06;10.27;;;4.00;;
12232;SDS011;6179;51.748;8.728;2023-02-13T23:58:07;13.73;;;4.60;;
